sensor_id;sensor_type;location;lat;lon;timestamp;pressure;altitude;pressure_sealevel;temperature;humidity
13934;BME280;7039;52.168;9.866;2022-12-07T00:00:49;100448.88;;;3.09;100.00
13934;BME280;7039;52.168;9.866;2022-12-07T00:03:18;100448.72;;;3.15;100.00
13934;BME280;7039;52.168;9.866;2022-12-07T00:05:44;100446.22;;;3.12;100.00
13934;BME280;7039;52.168;9.866;2022-12-07T00:08:11;100447.88;;;3.14;100.00
13934;BME280;7039;52.168;9.866;2022-12-07T00:10:38;100452.19;;;3.14;100.00
13934;BME280;7039;52.168;9.866;2022-12-07T00:13:05;100449.63;;;3.12;100.00
13934;BME280;7039;52.168;9.866;2022-12-07T00:15:33;100448.78;;;3.13;100.00
13934;BME280;7039;52.168;9.866;2022-12-07T00:18:00;100434.09;;;3.16;100.00
13934;BME280;7039;52.168;9.866;2022-12-07T00:20:28;100429.81;;;3.16;100.00
13934;BME280;7039;52.168;9.866;2022-12-07T00:22:55;100432.41;;;3.16;100.00
13934;BME280;7039;52.168;9.866;2022-12-07T00:25:22;100433.31;;;3.13;100.00
13934;BME280;7039;52.168;9.866;2022-12-07T00:27:48;100429.09;;;3.09;100.00
13934;BME280;7039;52.168;9.866;2022-12-07T00:30:15;100429.13;;;3.06;100.00
13934;BME280;7039;52.168;9.866;2022-12-07T00:32:43;100429.09;;;3.09;100.00
13934;BME280;7039;52.168;9.866;2022-12-07T00:35:09;100430.81;;;3.09;100.00
13934;BME280;7039;52.168;9.866;2022-12-07T00:37:37;100422.28;;;3.07;100.00
13934;BME280;7039;52.168;9.866;2022-12-07T00:40:05;100428.19;;;3.12;100.00
13934;BME280;7039;52.168;9.866;2022-12-07T00:42:32;100424.75;;;3.11;100.00
13934;BME280;7039;52.168;9.866;2022-12-07T00:44:58;100422.09;;;3.14;100.00
13934;BME280;7039;52.168;9.866;2022-12-07T00:47:24;100424.69;;;3.14;100.00
13934;BME280;7039;52.168;9.866;2022-12-07T00:49:51;100414.34;;;3.16;100.00
13934;BME280;7039;52.168;9.866;2022-12-07T00:52:17;100409.25;;;3.13;100.00
13934;BME280;7039;52.168;9.866;2022-12-07T00:54:45;100412.50;;;3.23;100.00
13934;BME280;7039;52.168;9.866;2022-12-07T00:57:12;100405.72;;;3.19;100.00
13934;BME280;7039;52.168;9.866;2022-12-07T00:59:38;100407.38;;;3.21;100.00
13934;BME280;7039;52.168;9.866;2022-12-07T01:02:04;100407.25;;;3.27;100.00
13934;BME280;7039;52.168;9.866;2022-12-07T01:04:33;100407.09;;;3.33;100.00
13934;BME280;7039;52.168;9.866;2022-12-07T01:06:59;100408.00;;;3.32;100.00
13934;BME280;7039;52.168;9.866;2022-12-07T01:09:26;100411.44;;;3.31;100.00
13934;BME280;7039;52.168;9.866;2022-12-07T01:11:54;100402.81;;;3.34;100.00
13934;BME280;7039;52.168;9.866;2022-12-07T01:14:20;100406.28;;;3.31;100.00
13934;BME280;7039;52.168;9.866;2022-12-07T01:16:46;100402.88;;;3.31;100.00
13934;BME280;7039;52.168;9.866;2022-12-07T01:19:13;100400.34;;;3.29;100.00
13934;BME280;7039;52.168;9.866;2022-12-07T01:21:39;100402.03;;;3.30;100.00
13934;BME280;7039;52.168;9.866;2022-12-07T01:24:09;100396.69;;;3.38;100.00
13934;BME280;7039;52.168;9.866;2022-12-07T01:26:36;100407.06;;;3.35;100.00
13934;BME280;7039;52.168;9.866;2022-12-07T01:29:04;100401.81;;;3.40;100.00
13934;BME280;7039;52.168;9.866;2022-12-07T01:31:31;100401.94;;;3.33;100.00
13934;BME280;7039;52.168;9.866;2022-12-07T01:33:58;100396.75;;;3.37;100.00
13934;BME280;7039;52.168;9.866;2022-12-07T01:36:27;100394.19;;;3.35;100.00
13934;BME280;7039;52.168;9.866;2022-12-07T01:38:55;100400.13;;;3.39;100.00
13934;BME280;7039;52.168;9.866;2022-12-07T01:41:23;100383.84;;;3.37;100.00
13934;BME280;7039;52.168;9.866;2022-12-07T01:44:19;100388.91;;;3.41;100.00
13934;BME280;7039;52.168;9.866;2022-12-07T01:46:46;100385.63;;;3.34;100.00
13934;BME280;7039;52.168;9.866;2022-12-07T01:49:17;100388.06;;;3.41;100.00
13934;BME280;7039;52.168;9.866;2022-12-07T01:51:46;100392.44;;;3.35;100.00
13934;BME280;7039;52.168;9.866;2022-12-07T01:54:15;100387.34;;;3.34;100.00
13934;BME280;7039;52.168;9.866;2022-12-07T01:56:46;100384.66;;;3.39;100.00
13934;BME280;7039;52.168;9.866;2022-12-07T01:59:17;100389.00;;;3.37;100.00
13934;BME280;7039;52.168;9.866;2022-12-07T02:01:46;100390.06;;;3.28;100.00
13934;BME280;7039;52.168;9.866;2022-12-07T02:04:13;100384.88;;;3.29;100.00
13934;BME280;7039;52.168;9.866;2022-12-07T02:06:41;100389.94;;;3.32;100.00
13934;BME280;7039;52.168;9.866;2022-12-07T02:09:09;100374.56;;;3.29;100.00
13934;BME280;7039;52.168;9.866;2022-12-07T02:11:36;100382.25;;;3.31;100.00
13934;BME280;7039;52.168;9.866;2022-12-07T02:14:02;100375.31;;;3.33;100.00
13934;BME280;7039;52.168;9.866;2022-12-07T02:16:36;100381.31;;;3.35;100.00
13934;BME280;7039;52.168;9.866;2022-12-07T02:19:28;100379.53;;;3.37;100.00
13934;BME280;7039;52.168;9.866;2022-12-07T02:22:02;100379.63;;;3.34;100.00
13934;BME280;7039;52.168;9.866;2022-12-07T02:24:48;100382.13;;;3.35;100.00
13934;BME280;7039;52.168;9.866;2022-12-07T02:27:39;100378.72;;;3.35;100.00
13934;BME280;7039;52.168;9.866;2022-12-07T02:30:12;100373.59;;;3.33;100.00
13934;BME280;7039;52.168;9.866;2022-12-07T02:32:47;100374.38;;;3.37;100.00
13934;BME280;7039;52.168;9.866;2022-12-07T02:35:17;100369.19;;;3.39;100.00
13934;BME280;7039;52.168;9.866;2022-12-07T02:37:53;100367.50;;;3.38;100.00
13934;BME280;7039;52.168;9.866;2022-12-07T02:40:27;100364.16;;;3.34;100.00
13934;BME280;7039;52.168;9.866;2022-12-07T02:42:59;100359.13;;;3.28;100.00
13934;BME280;7039;52.168;9.866;2022-12-07T02:45:30;100361.00;;;3.20;100.00
13934;BME280;7039;52.168;9.866;2022-12-07T02:47:59;100354.28;;;3.14;100.00
13934;BME280;7039;52.168;9.866;2022-12-07T02:50:27;100348.50;;;3.01;100.00
13934;BME280;7039;52.168;9.866;2022-12-07T02:52:53;100348.50;;;3.03;100.00
13934;BME280;7039;52.168;9.866;2022-12-07T02:55:28;100345.09;;;3.01;100.00
13934;BME280;7039;52.168;9.866;2022-12-07T02:58:22;100343.53;;;2.93;100.00
13934;BME280;7039;52.168;9.866;2022-12-07T03:01:04;100337.63;;;2.88;100.00
13934;BME280;7039;52.168;9.866;2022-12-07T03:03:36;100339.44;;;2.83;100.00
13934;BME280;7039;52.168;9.866;2022-12-07T03:06:11;100342.94;;;2.81;100.00
13934;BME280;7039;52.168;9.866;2022-12-07T03:08:50;100338.69;;;2.78;100.00
13934;BME280;7039;52.168;9.866;2022-12-07T03:11:23;100333.63;;;2.75;100.00
13934;BME280;7039;52.168;9.866;2022-12-07T03:13:55;100339.59;;;2.77;100.00
13934;BME280;7039;52.168;9.866;2022-12-07T03:16:27;100333.53;;;2.80;100.00
13934;BME280;7039;52.168;9.866;2022-12-07T03:18:58;100342.09;;;2.79;100.00
13934;BME280;7039;52.168;9.866;2022-12-07T03:21:27;100335.28;;;2.78;100.00
13934;BME280;7039;52.168;9.866;2022-12-07T03:24:00;100335.19;;;2.82;100.00
13934;BME280;7039;52.168;9.866;2022-12-07T03:26:33;100338.59;;;2.83;100.00
13934;BME280;7039;52.168;9.866;2022-12-07T03:29:02;100328.28;;;2.84;100.00
13934;BME280;7039;52.168;9.866;2022-12-07T03:31:39;100327.38;;;2.85;100.00
13934;BME280;7039;52.168;9.866;2022-12-07T03:34:11;100324.81;;;2.85;100.00
13934;BME280;7039;52.168;9.866;2022-12-07T03:36:44;100328.13;;;2.90;100.00
13934;BME280;7039;52.168;9.866;2022-12-07T03:39:19;100323.84;;;2.91;100.00
13934;BME280;7039;52.168;9.866;2022-12-07T03:41:49;100316.13;;;2.89;100.00
13934;BME280;7039;52.168;9.866;2022-12-07T03:44:17;100320.34;;;2.93;100.00
13934;BME280;7039;52.168;9.866;2022-12-07T03:46:50;100327.97;;;2.98;100.00
13934;BME280;7039;52.168;9.866;2022-12-07T03:49:24;100320.25;;;2.98;100.00
13934;BME280;7039;52.168;9.866;2022-12-07T03:51:56;100322.75;;;3.01;100.00
13934;BME280;7039;52.168;9.866;2022-12-07T03:54:31;100322.00;;;2.98;100.00
13934;BME280;7039;52.168;9.866;2022-12-07T03:56:59;100328.81;;;2.99;100.00
13934;BME280;7039;52.168;9.866;2022-12-07T03:59:28;100321.13;;;2.97;100.00
13934;BME280;7039;52.168;9.866;2022-12-07T04:02:03;100327.91;;;3.01;100.00
13934;BME280;7039;52.168;9.866;2022-12-07T04:04:31;100324.56;;;2.98;100.00
13934;BME280;7039;52.168;9.866;2022-12-07T04:06:58;100323.69;;;2.97;100.00
13934;BME280;7039;52.168;9.866;2022-12-07T04:09:25;100324.59;;;2.96;100.00
13934;BME280;7039;52.168;9.866;2022-12-07T04:11:52;100321.91;;;3.01;100.00
13934;BME280;7039;52.168;9.866;2022-12-07T04:14:18;100325.34;;;3.00;100.00
13934;BME280;7039;52.168;9.866;2022-12-07T04:16:45;100331.41;;;2.99;100.00
13934;BME280;7039;52.168;9.866;2022-12-07T04:19:14;100324.59;;;2.95;100.00
13934;BME280;7039;52.168;9.866;2022-12-07T04:21:41;100330.69;;;2.92;100.00
13934;BME280;7039;52.168;9.866;2022-12-07T04:24:09;100334.97;;;2.93;100.00
13934;BME280;7039;52.168;9.866;2022-12-07T04:26:35;100328.06;;;2.93;100.00
13934;BME280;7039;52.168;9.866;2022-12-07T04:29:02;100327.25;;;2.93;100.00
13934;BME280;7039;52.168;9.866;2022-12-07T04:31:29;100334.16;;;2.89;100.00
13934;BME280;7039;52.168;9.866;2022-12-07T04:33:55;100328.91;;;2.94;100.00
13934;BME280;7039;52.168;9.866;2022-12-07T04:36:24;100332.19;;;3.02;100.00
13934;BME280;7039;52.168;9.866;2022-12-07T04:38:53;100331.31;;;3.03;100.00
13934;BME280;7039;52.168;9.866;2022-12-07T04:41:20;100327.09;;;2.99;100.00
13934;BME280;7039;52.168;9.866;2022-12-07T04:43:52;100330.47;;;3.03;100.00
13934;BME280;7039;52.168;9.866;2022-12-07T04:46:19;100327.06;;;3.01;100.00
13934;BME280;7039;52.168;9.866;2022-12-07T04:48:46;100327.81;;;3.04;100.00
13934;BME280;7039;52.168;9.866;2022-12-07T04:51:13;100326.13;;;3.05;100.00
13934;BME280;7039;52.168;9.866;2022-12-07T04:53:41;100329.47;;;3.08;100.00
13934;BME280;7039;52.168;9.866;2022-12-07T04:56:07;100320.81;;;3.11;100.00
13934;BME280;7039;52.168;9.866;2022-12-07T04:58:33;100314.78;;;3.13;100.00
13934;BME280;7039;52.168;9.866;2022-12-07T05:01:00;100316.47;;;3.14;100.00
13934;BME280;7039;52.168;9.866;2022-12-07T05:03:26;100309.66;;;3.12;100.00
13934;BME280;7039;52.168;9.866;2022-12-07T05:05:53;100317.38;;;3.12;100.00
13934;BME280;7039;52.168;9.866;2022-12-07T05:08:19;100311.41;;;3.10;100.00
13934;BME280;7039;52.168;9.866;2022-12-07T05:10:48;100319.13;;;3.10;100.00
13934;BME280;7039;52.168;9.866;2022-12-07T05:13:14;100313.38;;;2.99;100.00
13934;BME280;7039;52.168;9.866;2022-12-07T05:15:41;100315.88;;;3.02;100.00
13934;BME280;7039;52.168;9.866;2022-12-07T05:18:09;100321.13;;;2.97;100.00
13934;BME280;7039;52.168;9.866;2022-12-07T05:20:37;100319.50;;;2.93;100.00
13934;BME280;7039;52.168;9.866;2022-12-07T05:23:04;100314.47;;;2.88;100.00
13934;BME280;7039;52.168;9.866;2022-12-07T05:25:30;100316.16;;;2.88;100.00
13934;BME280;7039;52.168;9.866;2022-12-07T05:27:58;100319.59;;;2.88;100.00
13934;BME280;7039;52.168;9.866;2022-12-07T05:30:26;100312.75;;;2.87;100.00
13934;BME280;7039;52.168;9.866;2022-12-07T05:32:53;100311.94;;;2.84;100.00
13934;BME280;7039;52.168;9.866;2022-12-07T05:35:19;100313.66;;;2.85;100.00
13934;BME280;7039;52.168;9.866;2022-12-07T05:37:46;100302.47;;;2.86;100.00
13934;BME280;7039;52.168;9.866;2022-12-07T05:40:13;100299.78;;;2.90;100.00
13934;BME280;7039;52.168;9.866;2022-12-07T05:42:40;100297.16;;;2.93;100.00
13934;BME280;7039;52.168;9.866;2022-12-07T05:45:09;100304.81;;;2.97;100.00
13934;BME280;7039;52.168;9.866;2022-12-07T05:47:36;100304.06;;;2.93;100.00
13934;BME280;7039;52.168;9.866;2022-12-07T05:50:04;100304.84;;;2.95;100.00
13934;BME280;7039;52.168;9.866;2022-12-07T05:52:31;100306.44;;;3.01;100.00
13934;BME280;7039;52.168;9.866;2022-12-07T05:54:58;100310.59;;;3.06;100.00
13934;BME280;7039;52.168;9.866;2022-12-07T05:57:24;100309.72;;;3.09;100.00
13934;BME280;7039;52.168;9.866;2022-12-07T05:59:51;100308.72;;;3.14;100.00
13934;BME280;7039;52.168;9.866;2022-12-07T06:02:18;100309.53;;;3.17;100.00
13934;BME280;7039;52.168;9.866;2022-12-07T06:04:46;100312.88;;;3.20;100.00
13934;BME280;7039;52.168;9.866;2022-12-07T06:07:14;100300.75;;;3.25;100.00
13934;BME280;7039;52.168;9.866;2022-12-07T06:09:41;100307.78;;;3.19;100.00
13934;BME280;7039;52.168;9.866;2022-12-07T06:12:09;100312.94;;;3.19;100.00
13934;BME280;7039;52.168;9.866;2022-12-07T06:14:53;100312.13;;;3.15;100.00
13934;BME280;7039;52.168;9.866;2022-12-07T06:17:20;100311.22;;;3.18;100.00
13934;BME280;7039;52.168;9.866;2022-12-07T06:19:47;100306.16;;;3.14;100.00
13934;BME280;7039;52.168;9.866;2022-12-07T06:22:14;100312.97;;;3.17;100.00
13934;BME280;7039;52.168;9.866;2022-12-07T06:24:41;100313.78;;;3.19;100.00
13934;BME280;7039;52.168;9.866;2022-12-07T06:27:08;100319.72;;;3.23;100.00
13934;BME280;7039;52.168;9.866;2022-12-07T06:29:36;100323.06;;;3.26;100.00
13934;BME280;7039;52.168;9.866;2022-12-07T06:32:03;100315.41;;;3.23;100.00
13934;BME280;7039;52.168;9.866;2022-12-07T06:34:31;100322.09;;;3.32;100.00
13934;BME280;7039;52.168;9.866;2022-12-07T06:36:58;100322.91;;;3.34;100.00
13934;BME280;7039;52.168;9.866;2022-12-07T06:39:26;100334.78;;;3.41;100.00
13934;BME280;7039;52.168;9.866;2022-12-07T06:41:53;100314.09;;;3.43;100.00
13934;BME280;7039;52.168;9.866;2022-12-07T06:44:20;100325.19;;;3.46;100.00
13934;BME280;7039;52.168;9.866;2022-12-07T06:46:47;100316.50;;;3.50;100.00
13934;BME280;7039;52.168;9.866;2022-12-07T06:49:14;100318.97;;;3.55;100.00
13934;BME280;7039;52.168;9.866;2022-12-07T06:51:42;100320.75;;;3.51;100.00
13934;BME280;7039;52.168;9.866;2022-12-07T06:54:09;100317.38;;;3.49;100.00
13934;BME280;7039;52.168;9.866;2022-12-07T06:56:36;100317.34;;;3.51;100.00
13934;BME280;7039;52.168;9.866;2022-12-07T06:59:03;100317.25;;;3.54;100.00
13934;BME280;7039;52.168;9.866;2022-12-07T07:01:30;100319.91;;;3.52;100.00
13934;BME280;7039;52.168;9.866;2022-12-07T07:03:57;100318.19;;;3.51;100.00
13934;BME280;7039;52.168;9.866;2022-12-07T07:06:23;100315.56;;;3.54;100.00
13934;BME280;7039;52.168;9.866;2022-12-07T07:08:51;100318.97;;;3.55;100.00
13934;BME280;7039;52.168;9.866;2022-12-07T07:11:18;100316.72;;;3.41;100.00
13934;BME280;7039;52.168;9.866;2022-12-07T07:13:45;100320.16;;;3.42;100.00
13934;BME280;7039;52.168;9.866;2022-12-07T07:16:11;100324.47;;;3.41;100.00
13934;BME280;7039;52.168;9.866;2022-12-07T07:18:38;100320.28;;;3.35;100.00
13934;BME280;7039;52.168;9.866;2022-12-07T07:21:05;100328.81;;;3.38;100.00
13934;BME280;7039;52.168;9.866;2022-12-07T07:23:31;100321.16;;;3.34;100.00
13934;BME280;7039;52.168;9.866;2022-12-07T07:25:59;100332.63;;;3.21;100.00
13934;BME280;7039;52.168;9.866;2022-12-07T07:28:26;100328.44;;;3.16;100.00
13934;BME280;7039;52.168;9.866;2022-12-07T07:30:52;100325.09;;;3.12;100.00
13934;BME280;7039;52.168;9.866;2022-12-07T07:33:19;100323.38;;;3.12;100.00
13934;BME280;7039;52.168;9.866;2022-12-07T07:35:45;100319.13;;;3.11;100.00
13934;BME280;7039;52.168;9.866;2022-12-07T07:38:12;100329.44;;;3.10;100.00
13934;BME280;7039;52.168;9.866;2022-12-07T07:40:38;100333.66;;;3.14;100.00
13934;BME280;7039;52.168;9.866;2022-12-07T07:43:06;100325.91;;;3.14;100.00
13934;BME280;7039;52.168;9.866;2022-12-07T07:45:32;100335.28;;;3.18;100.00
13934;BME280;7039;52.168;9.866;2022-12-07T07:47:59;100342.03;;;3.22;100.00
13934;BME280;7039;52.168;9.866;2022-12-07T07:50:25;100336.00;;;3.25;100.00
13934;BME280;7039;52.168;9.866;2022-12-07T07:52:52;100336.84;;;3.25;100.00
13934;BME280;7039;52.168;9.866;2022-12-07T07:55:18;100344.63;;;3.22;100.00
13934;BME280;7039;52.168;9.866;2022-12-07T07:57:45;100355.69;;;3.27;100.00
13934;BME280;7039;52.168;9.866;2022-12-07T08:00:14;100347.91;;;3.29;100.00
13934;BME280;7039;52.168;9.866;2022-12-07T08:02:41;100352.25;;;3.27;100.00
13934;BME280;7039;52.168;9.866;2022-12-07T08:05:09;100347.06;;;3.28;100.00
13934;BME280;7039;52.168;9.866;2022-12-07T08:07:36;100353.03;;;3.30;100.00
13934;BME280;7039;52.168;9.866;2022-12-07T08:10:03;100352.88;;;3.38;100.00
13934;BME280;7039;52.168;9.866;2022-12-07T08:12:30;100357.25;;;3.34;100.00
13934;BME280;7039;52.168;9.866;2022-12-07T08:14:56;100347.81;;;3.33;100.00
13934;BME280;7039;52.168;9.866;2022-12-07T08:17:24;100356.22;;;3.42;100.00
13934;BME280;7039;52.168;9.866;2022-12-07T08:19:50;100361.38;;;3.43;100.00
13934;BME280;7039;52.168;9.866;2022-12-07T08:22:17;100354.41;;;3.47;100.00
13934;BME280;7039;52.168;9.866;2022-12-07T08:24:44;100345.13;;;3.38;100.00
13934;BME280;7039;52.168;9.866;2022-12-07T08:27:10;100337.38;;;3.40;100.00
13934;BME280;7039;52.168;9.866;2022-12-07T08:29:37;100355.31;;;3.44;100.00
13934;BME280;7039;52.168;9.866;2022-12-07T08:32:03;100344.91;;;3.47;100.00
13934;BME280;7039;52.168;9.866;2022-12-07T08:34:31;100346.53;;;3.53;100.00
13934;BME280;7039;52.168;9.866;2022-12-07T08:36:58;100346.56;;;3.51;100.00
13934;BME280;7039;52.168;9.866;2022-12-07T08:39:24;100341.34;;;3.54;99.93
13934;BME280;7039;52.168;9.866;2022-12-07T08:41:51;100348.06;;;3.60;99.82
13934;BME280;7039;52.168;9.866;2022-12-07T08:44:17;100344.63;;;3.61;99.47
13934;BME280;7039;52.168;9.866;2022-12-07T08:46:47;100343.66;;;3.65;99.39
13934;BME280;7039;52.168;9.866;2022-12-07T08:49:18;100348.88;;;3.64;99.29
13934;BME280;7039;52.168;9.866;2022-12-07T08:51:47;100352.06;;;3.73;98.96
13934;BME280;7039;52.168;9.866;2022-12-07T08:54:16;100356.28;;;3.78;99.19
13934;BME280;7039;52.168;9.866;2022-12-07T08:56:44;100360.50;;;3.80;99.00
13934;BME280;7039;52.168;9.866;2022-12-07T08:59:12;100378.38;;;3.88;98.58
13934;BME280;7039;52.168;9.866;2022-12-07T09:01:40;100356.97;;;3.84;98.49
13934;BME280;7039;52.168;9.866;2022-12-07T09:04:06;100351.75;;;3.86;98.13
13934;BME280;7039;52.168;9.866;2022-12-07T09:06:33;100364.53;;;3.90;97.65
13934;BME280;7039;52.168;9.866;2022-12-07T09:09:01;100371.31;;;3.96;97.99
13934;BME280;7039;52.168;9.866;2022-12-07T09:11:29;100363.41;;;4.02;97.87
13934;BME280;7039;52.168;9.866;2022-12-07T09:13:55;100361.72;;;4.01;97.81
13934;BME280;7039;52.168;9.866;2022-12-07T09:16:22;100361.91;;;3.93;97.66
13934;BME280;7039;52.168;9.866;2022-12-07T09:18:48;100357.44;;;4.00;97.71
13934;BME280;7039;52.168;9.866;2022-12-07T09:21:15;100360.88;;;4.01;98.38
13934;BME280;7039;52.168;9.866;2022-12-07T09:23:42;100365.13;;;4.02;98.05
13934;BME280;7039;52.168;9.866;2022-12-07T09:26:10;100367.25;;;4.20;98.55
13934;BME280;7039;52.168;9.866;2022-12-07T09:28:36;100368.88;;;4.24;97.76
13934;BME280;7039;52.168;9.866;2022-12-07T09:31:03;100366.47;;;4.18;96.67
13934;BME280;7039;52.168;9.866;2022-12-07T09:33:30;100360.53;;;4.13;96.37
13934;BME280;7039;52.168;9.866;2022-12-07T09:35:57;100359.63;;;4.15;95.64
13934;BME280;7039;52.168;9.866;2022-12-07T09:38:24;100372.50;;;4.17;94.83
13934;BME280;7039;52.168;9.866;2022-12-07T09:40:52;100367.34;;;4.15;94.98
13934;BME280;7039;52.168;9.866;2022-12-07T09:43:22;100363.06;;;4.16;95.35
13934;BME280;7039;52.168;9.866;2022-12-07T09:45:51;100356.47;;;4.04;95.35
13934;BME280;7039;52.168;9.866;2022-12-07T09:48:21;100359.84;;;4.06;95.74
13934;BME280;7039;52.168;9.866;2022-12-07T09:50:49;100350.63;;;3.97;96.15
13934;BME280;7039;52.168;9.866;2022-12-07T09:53:24;100353.28;;;3.94;97.13
13934;BME280;7039;52.168;9.866;2022-12-07T09:55:51;100349.16;;;3.87;97.15
13934;BME280;7039;52.168;9.866;2022-12-07T09:58:22;100349.25;;;3.83;98.09
13934;BME280;7039;52.168;9.866;2022-12-07T10:00:50;100327.34;;;3.63;98.37
13934;BME280;7039;52.168;9.866;2022-12-07T10:03:19;100332.72;;;3.55;98.79
13934;BME280;7039;52.168;9.866;2022-12-07T10:05:48;100333.66;;;3.51;99.64
13934;BME280;7039;52.168;9.866;2022-12-07T10:08:15;100334.50;;;3.52;99.73
13934;BME280;7039;52.168;9.866;2022-12-07T10:10:43;100345.56;;;3.57;99.39
13934;BME280;7039;52.168;9.866;2022-12-07T10:13:11;100334.19;;;3.66;98.88
13934;BME280;7039;52.168;9.866;2022-12-07T10:15:46;100350.44;;;3.69;98.03
13934;BME280;7039;52.168;9.866;2022-12-07T10:18:18;100343.50;;;3.73;97.11
13934;BME280;7039;52.168;9.866;2022-12-07T10:20:46;100335.63;;;3.78;96.56
13934;BME280;7039;52.168;9.866;2022-12-07T10:23:15;100342.09;;;3.95;96.16
13934;BME280;7039;52.168;9.866;2022-12-07T10:25:42;100343.50;;;4.07;95.93
13934;BME280;7039;52.168;9.866;2022-12-07T10:28:12;100356.91;;;4.20;95.75
13934;BME280;7039;52.168;9.866;2022-12-07T10:30:50;100351.59;;;4.26;95.03
13934;BME280;7039;52.168;9.866;2022-12-07T10:33:28;100342.09;;;4.28;94.86
13934;BME280;7039;52.168;9.866;2022-12-07T10:35:56;100345.25;;;4.38;95.30
13934;BME280;7039;52.168;9.866;2022-12-07T10:38:24;100338.28;;;4.42;94.17
13934;BME280;7039;52.168;9.866;2022-12-07T10:41:03;100334.91;;;4.39;94.04
13934;BME280;7039;52.168;9.866;2022-12-07T10:43:29;100336.25;;;4.22;93.53
13934;BME280;7039;52.168;9.866;2022-12-07T10:46:17;100331.66;;;4.31;93.55
13934;BME280;7039;52.168;9.866;2022-12-07T10:48:52;100332.53;;;4.32;94.14
13934;BME280;7039;52.168;9.866;2022-12-07T10:51:27;100332.44;;;4.35;93.83
13934;BME280;7039;52.168;9.866;2022-12-07T10:54:03;100332.16;;;4.46;93.71
13934;BME280;7039;52.168;9.866;2022-12-07T10:57:04;100328.06;;;4.38;93.01
13934;BME280;7039;52.168;9.866;2022-12-07T10:59:47;100331.53;;;4.36;94.00
13934;BME280;7039;52.168;9.866;2022-12-07T11:02:25;100322.13;;;4.35;94.44
13934;BME280;7039;52.168;9.866;2022-12-07T11:05:05;100317.84;;;4.34;94.35
13934;BME280;7039;52.168;9.866;2022-12-07T11:07:41;100323.22;;;4.26;94.93
13934;BME280;7039;52.168;9.866;2022-12-07T11:10:13;100318.84;;;4.28;95.47
13934;BME280;7039;52.168;9.866;2022-12-07T11:12:54;100312.69;;;4.34;95.59
13934;BME280;7039;52.168;9.866;2022-12-07T11:15:26;100305.63;;;4.41;94.17
13934;BME280;7039;52.168;9.866;2022-12-07T11:18:00;100320.13;;;4.45;93.34
13934;BME280;7039;52.168;9.866;2022-12-07T11:20:39;100314.69;;;4.85;93.14
13934;BME280;7039;52.168;9.866;2022-12-07T11:23:16;100312.16;;;5.13;92.44
13934;BME280;7039;52.168;9.866;2022-12-07T11:25:51;100316.66;;;5.35;91.59
13934;BME280;7039;52.168;9.866;2022-12-07T11:28:27;100301.38;;;5.27;90.03
13934;BME280;7039;52.168;9.866;2022-12-07T11:31:04;100302.50;;;5.18;90.18
13934;BME280;7039;52.168;9.866;2022-12-07T11:33:39;100297.09;;;4.98;91.25
13934;BME280;7039;52.168;9.866;2022-12-07T11:36:22;100303.53;;;4.85;92.84
13934;BME280;7039;52.168;9.866;2022-12-07T11:38:57;100298.06;;;4.64;93.01
13934;BME280;7039;52.168;9.866;2022-12-07T11:41:30;100294.59;;;4.65;93.59
13934;BME280;7039;52.168;9.866;2022-12-07T11:44:02;100291.88;;;4.70;94.10
13934;BME280;7039;52.168;9.866;2022-12-07T11:46:43;100277.44;;;4.63;93.69
13934;BME280;7039;52.168;9.866;2022-12-07T11:49:19;100285.03;;;4.69;94.78
13934;BME280;7039;52.168;9.866;2022-12-07T11:51:49;100278.09;;;4.71;94.40
13934;BME280;7039;52.168;9.866;2022-12-07T11:54:20;100277.28;;;4.69;93.95
13934;BME280;7039;52.168;9.866;2022-12-07T11:56:49;100269.94;;;4.55;93.89
13934;BME280;7039;52.168;9.866;2022-12-07T11:59:21;100270.63;;;4.60;93.59
13934;BME280;7039;52.168;9.866;2022-12-07T12:01:53;100269.00;;;4.57;94.49
13934;BME280;7039;52.168;9.866;2022-12-07T12:04:32;100264.06;;;4.50;94.48
13934;BME280;7039;52.168;9.866;2022-12-07T12:07:00;100261.91;;;4.34;93.76
13934;BME280;7039;52.168;9.866;2022-12-07T12:09:33;100261.59;;;4.45;93.83
13934;BME280;7039;52.168;9.866;2022-12-07T12:12:21;100258.34;;;4.68;93.06
13934;BME280;7039;52.168;9.866;2022-12-07T12:14:59;100268.28;;;4.82;92.71
13934;BME280;7039;52.168;9.866;2022-12-07T12:17:43;100260.81;;;4.73;91.74
13934;BME280;7039;52.168;9.866;2022-12-07T12:20:23;100257.00;;;4.85;91.44
13934;BME280;7039;52.168;9.866;2022-12-07T12:22:55;100259.31;;;4.94;90.89
13934;BME280;7039;52.168;9.866;2022-12-07T12:25:26;100252.47;;;4.93;90.91
13934;BME280;7039;52.168;9.866;2022-12-07T12:27:56;100257.63;;;4.93;90.75
13934;BME280;7039;52.168;9.866;2022-12-07T12:30:29;100269.69;;;4.92;91.25
13934;BME280;7039;52.168;9.866;2022-12-07T12:33:03;100254.97;;;4.94;91.01
13934;BME280;7039;52.168;9.866;2022-12-07T12:35:34;100261.06;;;4.93;91.41
13934;BME280;7039;52.168;9.866;2022-12-07T12:38:26;100248.13;;;4.93;91.88
13934;BME280;7039;52.168;9.866;2022-12-07T12:40:53;100267.19;;;4.89;90.87
13934;BME280;7039;52.168;9.866;2022-12-07T12:43:44;100251.59;;;4.92;90.57
13934;BME280;7039;52.168;9.866;2022-12-07T12:46:51;100237.06;;;4.88;91.24
13934;BME280;7039;52.168;9.866;2022-12-07T12:49:38;100240.09;;;5.02;90.38
13934;BME280;7039;52.168;9.866;2022-12-07T12:58:33;100242.91;;;5.50;89.05
13934;BME280;7039;52.168;9.866;2022-12-07T13:04:28;100221.81;;;5.35;88.03
13934;BME280;7039;52.168;9.866;2022-12-07T13:06:55;100225.78;;;5.19;89.34
13934;BME280;7039;52.168;9.866;2022-12-07T13:09:24;100230.28;;;5.14;88.43
13934;BME280;7039;52.168;9.866;2022-12-07T13:11:58;100222.66;;;5.09;89.42
13934;BME280;7039;52.168;9.866;2022-12-07T13:14:42;100218.91;;;4.91;89.49
13934;BME280;7039;52.168;9.866;2022-12-07T13:17:09;100212.03;;;4.90;89.81
13934;BME280;7039;52.168;9.866;2022-12-07T13:19:58;100212.16;;;4.86;89.55
13934;BME280;7039;52.168;9.866;2022-12-07T13:22:52;100217.56;;;4.79;89.85
13934;BME280;7039;52.168;9.866;2022-12-07T13:25:30;100222.78;;;4.76;90.26
13934;BME280;7039;52.168;9.866;2022-12-07T13:28:02;100210.59;;;4.81;90.71
13934;BME280;7039;52.168;9.866;2022-12-07T13:30:30;100211.34;;;4.85;90.73